sensor_id;sensor_type;location;lat;lon;timestamp;P1;durP1;ratioP1;P2;durP2;ratioP2
52126;SDS011;38120;53.176;6.614;2023-04-24T00:02:04;8.90;;;6.40;;
52126;SDS011;38120;53.176;6.614;2023-04-24T00:04:37;8.55;;;6.22;;
52126;SDS011;38120;53.176;6.614;2023-04-24T00:07:06;8.10;;;5.60;;
52126;SDS011;38120;53.176;6.614;2023-04-24T00:09:33;8.50;;;5.93;;
52126;SDS011;38120;53.176;6.614;2023-04-24T00:12:04;8.65;;;5.45;;
52126;SDS011;38120;53.176;6.614;2023-04-24T00:14:57;8.70;;;5.28;;
52126;SDS011;38120;53.176;6.614;2023-04-24T00:17:29;7.47;;;4.72;;
52126;SDS011;38120;53.176;6.614;2023-04-24T00:20:17;6.78;;;4.45;;
52126;SDS011;38120;53.176;6.614;2023-04-24T00:22:44;4.35;;;2.53;;
52126;SDS011;38120;53.176;6.614;2023-04-24T00:25:09;4.90;;;3.03;;
52126;SDS011;38120;53.176;6.614;2023-04-24T00:27:35;4.27;;;2.17;;
52126;SDS011;38120;53.176;6.614;2023-04-24T00:30:02;1.98;;;1.30;;
52126;SDS011;38120;53.176;6.614;2023-04-24T00:32:28;3.30;;;1.83;;
52126;SDS011;38120;53.176;6.614;2023-04-24T00:34:54;5.47;;;2.00;;
52126;SDS011;38120;53.176;6.614;2023-04-24T00:37:19;2.97;;;1.50;;
52126;SDS011;38120;53.176;6.614;2023-04-24T00:39:45;5.13;;;1.45;;
52126;SDS011;38120;53.176;6.614;2023-04-24T00:42:17;3.50;;;1.77;;
52126;SDS011;38120;53.176;6.614;2023-04-24T00:44:42;2.75;;;1.42;;
52126;SDS011;38120;53.176;6.614;2023-04-24T00:47:08;1.92;;;1.30;;
52126;SDS011;38120;53.176;6.614;2023-04-24T00:49:36;2.38;;;1.20;;
52126;SDS011;38120;53.176;6.614;2023-04-24T00:52:04;1.55;;;0.85;;
52126;SDS011;38120;53.176;6.614;2023-04-24T00:54:33;2.53;;;1.10;;
52126;SDS011;38120;53.176;6.614;2023-04-24T00:57:02;3.45;;;0.88;;
52126;SDS011;38120;53.176;6.614;2023-04-24T00:59:31;1.55;;;0.68;;
52126;SDS011;38120;53.176;6.614;2023-04-24T01:02:09;1.63;;;0.93;;
52126;SDS011;38120;53.176;6.614;2023-04-24T01:04:36;1.90;;;1.08;;
52126;SDS011;38120;53.176;6.614;2023-04-24T01:07:02;1.88;;;0.93;;
52126;SDS011;38120;53.176;6.614;2023-04-24T01:09:29;1.10;;;0.55;;
52126;SDS011;38120;53.176;6.614;2023-04-24T01:11:55;1.98;;;0.75;;
52126;SDS011;38120;53.176;6.614;2023-04-24T01:14:21;1.67;;;1.10;;
52126;SDS011;38120;53.176;6.614;2023-04-24T01:16:47;3.08;;;1.00;;
52126;SDS011;38120;53.176;6.614;2023-04-24T01:19:13;1.37;;;0.70;;
52126;SDS011;38120;53.176;6.614;2023-04-24T01:21:41;1.08;;;0.73;;
52126;SDS011;38120;53.176;6.614;2023-04-24T01:24:09;1.77;;;1.10;;
52126;SDS011;38120;53.176;6.614;2023-04-24T01:26:35;2.00;;;1.00;;
52126;SDS011;38120;53.176;6.614;2023-04-24T01:29:01;2.13;;;0.90;;
52126;SDS011;38120;53.176;6.614;2023-04-24T01:31:26;1.90;;;1.03;;
52126;SDS011;38120;53.176;6.614;2023-04-24T01:33:53;1.80;;;1.00;;
52126;SDS011;38120;53.176;6.614;2023-04-24T01:36:39;3.33;;;1.23;;
52126;SDS011;38120;53.176;6.614;2023-04-24T01:39:07;2.05;;;1.40;;
52126;SDS011;38120;53.176;6.614;2023-04-24T01:41:45;2.28;;;1.13;;
52126;SDS011;38120;53.176;6.614;2023-04-24T01:44:11;2.45;;;1.30;;
52126;SDS011;38120;53.176;6.614;2023-04-24T01:46:37;2.47;;;1.48;;
52126;SDS011;38120;53.176;6.614;2023-04-24T01:49:03;3.00;;;1.85;;
52126;SDS011;38120;53.176;6.614;2023-04-24T01:51:29;2.40;;;1.42;;
52126;SDS011;38120;53.176;6.614;2023-04-24T01:53:55;3.15;;;1.85;;
52126;SDS011;38120;53.176;6.614;2023-04-24T01:56:21;3.22;;;1.50;;
52126;SDS011;38120;53.176;6.614;2023-04-24T01:58:47;2.72;;;1.80;;
52126;SDS011;38120;53.176;6.614;2023-04-24T02:01:19;2.65;;;1.67;;
52126;SDS011;38120;53.176;6.614;2023-04-24T02:03:45;3.20;;;1.70;;
52126;SDS011;38120;53.176;6.614;2023-04-24T02:06:11;4.22;;;2.13;;
52126;SDS011;38120;53.176;6.614;2023-04-24T02:08:37;3.25;;;2.00;;
52126;SDS011;38120;53.176;6.614;2023-04-24T02:11:02;3.67;;;1.97;;
52126;SDS011;38120;53.176;6.614;2023-04-24T02:13:28;3.63;;;2.10;;
52126;SDS011;38120;53.176;6.614;2023-04-24T02:15:54;3.88;;;2.20;;
52126;SDS011;38120;53.176;6.614;2023-04-24T02:18:20;3.77;;;2.47;;
52126;SDS011;38120;53.176;6.614;2023-04-24T02:20:46;5.40;;;2.83;;
52126;SDS011;38120;53.176;6.614;2023-04-24T02:23:11;4.37;;;2.70;;
52126;SDS011;38120;53.176;6.614;2023-04-24T02:25:38;5.55;;;2.72;;
52126;SDS011;38120;53.176;6.614;2023-04-24T02:28:04;5.20;;;3.73;;
52126;SDS011;38120;53.176;6.614;2023-04-24T02:30:30;4.20;;;3.00;;
52126;SDS011;38120;53.176;6.614;2023-04-24T02:32:55;4.87;;;3.30;;
52126;SDS011;38120;53.176;6.614;2023-04-24T02:35:39;6.03;;;4.05;;
52126;SDS011;38120;53.176;6.614;2023-04-24T02:38:17;6.18;;;4.13;;
52126;SDS011;38120;53.176;6.614;2023-04-24T02:40:48;5.93;;;4.03;;
52126;SDS011;38120;53.176;6.614;2023-04-24T02:43:16;6.85;;;3.90;;
52126;SDS011;38120;53.176;6.614;2023-04-24T02:45:45;6.47;;;3.57;;
52126;SDS011;38120;53.176;6.614;2023-04-24T02:48:12;6.63;;;4.50;;
52126;SDS011;38120;53.176;6.614;2023-04-24T02:50:38;6.80;;;4.87;;
52126;SDS011;38120;53.176;6.614;2023-04-24T02:53:04;6.40;;;3.93;;
52126;SDS011;38120;53.176;6.614;2023-04-24T02:55:35;7.57;;;4.53;;
52126;SDS011;38120;53.176;6.614;2023-04-24T02:58:01;6.53;;;4.50;;
52126;SDS011;38120;53.176;6.614;2023-04-24T03:00:26;7.70;;;4.37;;
52126;SDS011;38120;53.176;6.614;2023-04-24T03:02:55;8.15;;;4.70;;
52126;SDS011;38120;53.176;6.614;2023-04-24T03:05:20;7.00;;;4.37;;
52126;SDS011;38120;53.176;6.614;2023-04-24T03:07:49;7.28;;;5.07;;
52126;SDS011;38120;53.176;6.614;2023-04-24T03:10:14;6.57;;;4.80;;
52126;SDS011;38120;53.176;6.614;2023-04-24T03:12:43;7.18;;;4.95;;
52126;SDS011;38120;53.176;6.614;2023-04-24T03:15:08;6.60;;;4.30;;
52126;SDS011;38120;53.176;6.614;2023-04-24T03:17:34;6.72;;;4.40;;
52126;SDS011;38120;53.176;6.614;2023-04-24T03:20:01;8.07;;;5.30;;
52126;SDS011;38120;53.176;6.614;2023-04-24T03:22:26;9.23;;;5.15;;
52126;SDS011;38120;53.176;6.614;2023-04-24T03:24:52;7.27;;;5.20;;
52126;SDS011;38120;53.176;6.614;2023-04-24T03:27:18;8.13;;;5.70;;
52126;SDS011;38120;53.176;6.614;2023-04-24T03:29:43;10.83;;;6.57;;
52126;SDS011;38120;53.176;6.614;2023-04-24T03:32:12;9.80;;;6.32;;
52126;SDS011;38120;53.176;6.614;2023-04-24T03:34:37;8.97;;;6.60;;
52126;SDS011;38120;53.176;6.614;2023-04-24T03:37:03;12.50;;;7.53;;
52126;SDS011;38120;53.176;6.614;2023-04-24T03:39:28;9.17;;;7.00;;
52126;SDS011;38120;53.176;6.614;2023-04-24T03:41:54;9.98;;;7.43;;
52126;SDS011;38120;53.176;6.614;2023-04-24T03:44:20;10.77;;;8.35;;
52126;SDS011;38120;53.176;6.614;2023-04-24T03:46:46;13.25;;;9.00;;
52126;SDS011;38120;53.176;6.614;2023-04-24T03:49:12;12.40;;;8.27;;
52126;SDS011;38120;53.176;6.614;2023-04-24T03:51:38;12.23;;;8.63;;
52126;SDS011;38120;53.176;6.614;2023-04-24T03:54:15;11.18;;;8.57;;
52126;SDS011;38120;53.176;6.614;2023-04-24T03:56:40;10.70;;;7.93;;
52126;SDS011;38120;53.176;6.614;2023-04-24T03:59:06;9.13;;;7.43;;
52126;SDS011;38120;53.176;6.614;2023-04-24T04:01:32;9.63;;;7.33;;
52126;SDS011;38120;53.176;6.614;2023-04-24T04:04:10;10.57;;;8.00;;
52126;SDS011;38120;53.176;6.614;2023-04-24T04:06:36;8.07;;;7.20;;
52126;SDS011;38120;53.176;6.614;2023-04-24T04:09:02;8.63;;;6.80;;
52126;SDS011;38120;53.176;6.614;2023-04-24T04:11:28;9.25;;;7.70;;
52126;SDS011;38120;53.176;6.614;2023-04-24T04:13:53;8.38;;;6.40;;
52126;SDS011;38120;53.176;6.614;2023-04-24T04:16:19;10.27;;;7.30;;
52126;SDS011;38120;53.176;6.614;2023-04-24T04:18:45;8.97;;;6.97;;
52126;SDS011;38120;53.176;6.614;2023-04-24T04:21:11;7.27;;;6.30;;
52126;SDS011;38120;53.176;6.614;2023-04-24T04:23:36;10.43;;;6.85;;
52126;SDS011;38120;53.176;6.614;2023-04-24T04:26:08;9.70;;;7.40;;
52126;SDS011;38120;53.176;6.614;2023-04-24T04:28:34;7.47;;;6.22;;
52126;SDS011;38120;53.176;6.614;2023-04-24T04:31:02;7.95;;;6.63;;
52126;SDS011;38120;53.176;6.614;2023-04-24T04:33:30;9.60;;;7.05;;
52126;SDS011;38120;53.176;6.614;2023-04-24T04:35:56;8.30;;;6.18;;
52126;SDS011;38120;53.176;6.614;2023-04-24T04:38:23;7.95;;;6.10;;
52126;SDS011;38120;53.176;6.614;2023-04-24T04:40:51;8.15;;;6.32;;
52126;SDS011;38120;53.176;6.614;2023-04-24T04:43:24;7.47;;;5.95;;
52126;SDS011;38120;53.176;6.614;2023-04-24T04:45:50;6.38;;;5.13;;
52126;SDS011;38120;53.176;6.614;2023-04-24T04:48:17;7.68;;;5.18;;
52126;SDS011;38120;53.176;6.614;2023-04-24T04:50:43;7.82;;;5.78;;
52126;SDS011;38120;53.176;6.614;2023-04-24T04:53:09;8.82;;;4.97;;
52126;SDS011;38120;53.176;6.614;2023-04-24T04:55:35;7.35;;;5.35;;
52126;SDS011;38120;53.176;6.614;2023-04-24T05:00:27;7.15;;;4.47;;
52126;SDS011;38120;53.176;6.614;2023-04-24T05:02:58;6.93;;;4.78;;
52126;SDS011;38120;53.176;6.614;2023-04-24T05:05:30;6.28;;;4.35;;
52126;SDS011;38120;53.176;6.614;2023-04-24T05:10:47;7.00;;;4.45;;
52126;SDS011;38120;53.176;6.614;2023-04-24T05:13:13;6.50;;;4.53;;
52126;SDS011;38120;53.176;6.614;2023-04-24T05:15:39;7.22;;;4.93;;
52126;SDS011;38120;53.176;6.614;2023-04-24T05:18:04;6.60;;;4.38;;
52126;SDS011;38120;53.176;6.614;2023-04-24T05:20:30;7.03;;;5.05;;
52126;SDS011;38120;53.176;6.614;2023-04-24T05:22:56;7.13;;;4.85;;
52126;SDS011;38120;53.176;6.614;2023-04-24T05:25:23;6.50;;;4.55;;
52126;SDS011;38120;53.176;6.614;2023-04-24T05:27:49;4.70;;;3.38;;
52126;SDS011;38120;53.176;6.614;2023-04-24T05:30:18;8.15;;;3.58;;
52126;SDS011;38120;53.176;6.614;2023-04-24T05:32:57;5.75;;;3.90;;
52126;SDS011;38120;53.176;6.614;2023-04-24T05:35:23;4.73;;;3.27;;
52126;SDS011;38120;53.176;6.614;2023-04-24T05:37:49;7.43;;;3.80;;
52126;SDS011;38120;53.176;6.614;2023-04-24T05:40:15;5.45;;;3.65;;
52126;SDS011;38120;53.176;6.614;2023-04-24T05:42:40;5.80;;;4.03;;
52126;SDS011;38120;53.176;6.614;2023-04-24T05:45:06;5.78;;;4.22;;
52126;SDS011;38120;53.176;6.614;2023-04-24T05:47:33;6.82;;;4.43;;
52126;SDS011;38120;53.176;6.614;2023-04-24T05:49:59;5.57;;;3.00;;
52126;SDS011;38120;53.176;6.614;2023-04-24T05:52:24;4.73;;;3.40;;
52126;SDS011;38120;53.176;6.614;2023-04-24T05:54:51;4.80;;;3.40;;
52126;SDS011;38120;53.176;6.614;2023-04-24T05:57:17;4.57;;;2.97;;
52126;SDS011;38120;53.176;6.614;2023-04-24T05:59:43;5.55;;;3.13;;
52126;SDS011;38120;53.176;6.614;2023-04-24T06:02:08;4.00;;;2.27;;
52126;SDS011;38120;53.176;6.614;2023-04-24T06:04:39;5.32;;;2.88;;
52126;SDS011;38120;53.176;6.614;2023-04-24T06:07:07;4.65;;;2.53;;
52126;SDS011;38120;53.176;6.614;2023-04-24T06:09:38;4.73;;;2.43;;
52126;SDS011;38120;53.176;6.614;2023-04-24T06:12:04;5.13;;;2.30;;
52126;SDS011;38120;53.176;6.614;2023-04-24T06:14:32;3.80;;;2.08;;
52126;SDS011;38120;53.176;6.614;2023-04-24T06:16:58;4.93;;;2.35;;
52126;SDS011;38120;53.176;6.614;2023-04-24T06:19:23;6.70;;;2.92;;
52126;SDS011;38120;53.176;6.614;2023-04-24T06:21:49;7.90;;;3.72;;
52126;SDS011;38120;53.176;6.614;2023-04-24T06:24:15;7.57;;;3.47;;
52126;SDS011;38120;53.176;6.614;2023-04-24T06:26:47;4.80;;;3.35;;
52126;SDS011;38120;53.176;6.614;2023-04-24T06:29:16;6.93;;;3.40;;
52126;SDS011;38120;53.176;6.614;2023-04-24T06:31:42;4.47;;;2.83;;
52126;SDS011;38120;53.176;6.614;2023-04-24T06:34:07;4.73;;;3.30;;
52126;SDS011;38120;53.176;6.614;2023-04-24T06:36:33;7.20;;;3.80;;
52126;SDS011;38120;53.176;6.614;2023-04-24T06:39:03;7.13;;;4.32;;
52126;SDS011;38120;53.176;6.614;2023-04-24T06:41:29;8.48;;;4.40;;
52126;SDS011;38120;53.176;6.614;2023-04-24T06:43:55;7.77;;;4.37;;
52126;SDS011;38120;53.176;6.614;2023-04-24T06:46:21;8.70;;;4.63;;
52126;SDS011;38120;53.176;6.614;2023-04-24T06:48:54;7.18;;;4.13;;
52126;SDS011;38120;53.176;6.614;2023-04-24T06:51:23;8.93;;;4.57;;
52126;SDS011;38120;53.176;6.614;2023-04-24T06:56:15;9.88;;;4.65;;
52126;SDS011;38120;53.176;6.614;2023-04-24T06:58:41;8.85;;;4.47;;
52126;SDS011;38120;53.176;6.614;2023-04-24T07:01:07;7.72;;;4.22;;
52126;SDS011;38120;53.176;6.614;2023-04-24T07:03:39;10.53;;;5.37;;
52126;SDS011;38120;53.176;6.614;2023-04-24T07:06:17;6.07;;;3.50;;
52126;SDS011;38120;53.176;6.614;2023-04-24T07:13:37;5.28;;;2.22;;
52126;SDS011;38120;53.176;6.614;2023-04-24T07:16:13;4.13;;;2.00;;
52126;SDS011;38120;53.176;6.614;2023-04-24T07:18:39;6.38;;;2.75;;
52126;SDS011;38120;53.176;6.614;2023-04-24T07:21:05;6.60;;;1.63;;
52126;SDS011;38120;53.176;6.614;2023-04-24T07:23:32;2.85;;;1.38;;
52126;SDS011;38120;53.176;6.614;2023-04-24T07:25:57;4.65;;;1.63;;
52126;SDS011;38120;53.176;6.614;2023-04-24T07:28:23;3.88;;;1.77;;
52126;SDS011;38120;53.176;6.614;2023-04-24T07:30:49;4.72;;;1.75;;
52126;SDS011;38120;53.176;6.614;2023-04-24T07:33:15;4.78;;;1.48;;
52126;SDS011;38120;53.176;6.614;2023-04-24T07:35:41;8.80;;;2.20;;
52126;SDS011;38120;53.176;6.614;2023-04-24T07:38:07;7.78;;;2.00;;
52126;SDS011;38120;53.176;6.614;2023-04-24T07:40:32;6.07;;;2.20;;
52126;SDS011;38120;53.176;6.614;2023-04-24T07:42:58;7.23;;;1.97;;
52126;SDS011;38120;53.176;6.614;2023-04-24T07:45:34;7.45;;;2.55;;
52126;SDS011;38120;53.176;6.614;2023-04-24T07:48:02;5.95;;;1.92;;
52126;SDS011;38120;53.176;6.614;2023-04-24T07:50:34;6.57;;;2.55;;
52126;SDS011;38120;53.176;6.614;2023-04-24T07:53:01;5.35;;;2.60;;
52126;SDS011;38120;53.176;6.614;2023-04-24T07:55:37;9.45;;;2.58;;
52126;SDS011;38120;53.176;6.614;2023-04-24T07:58:03;6.00;;;1.98;;
52126;SDS011;38120;53.176;6.614;2023-04-24T08:00:29;3.80;;;2.40;;
52126;SDS011;38120;53.176;6.614;2023-04-24T08:02:55;8.05;;;2.75;;
52126;SDS011;38120;53.176;6.614;2023-04-24T08:05:20;7.13;;;2.50;;
52126;SDS011;38120;53.176;6.614;2023-04-24T08:07:47;6.18;;;2.85;;
52126;SDS011;38120;53.176;6.614;2023-04-24T08:10:15;8.60;;;3.53;;
52126;SDS011;38120;53.176;6.614;2023-04-24T08:12:41;9.02;;;3.65;;
52126;SDS011;38120;53.176;6.614;2023-04-24T08:15:07;8.95;;;4.63;;
52126;SDS011;38120;53.176;6.614;2023-04-24T08:17:34;9.85;;;5.50;;
52126;SDS011;38120;53.176;6.614;2023-04-24T08:20:00;12.70;;;5.88;;
52126;SDS011;38120;53.176;6.614;2023-04-24T08:22:27;10.40;;;6.82;;
52126;SDS011;38120;53.176;6.614;2023-04-24T08:24:53;13.85;;;7.28;;
52126;SDS011;38120;53.176;6.614;2023-04-24T08:27:19;14.00;;;8.20;;
52126;SDS011;38120;53.176;6.614;2023-04-24T08:29:45;14.83;;;9.10;;
52126;SDS011;38120;53.176;6.614;2023-04-24T08:32:11;18.88;;;10.23;;
52126;SDS011;38120;53.176;6.614;2023-04-24T08:34:37;22.23;;;9.77;;
52126;SDS011;38120;53.176;6.614;2023-04-24T08:37:02;21.70;;;11.47;;
52126;SDS011;38120;53.176;6.614;2023-04-24T08:39:28;20.52;;;10.52;;
52126;SDS011;38120;53.176;6.614;2023-04-24T08:41:55;15.15;;;8.95;;
52126;SDS011;38120;53.176;6.614;2023-04-24T08:44:21;16.15;;;9.20;;
52126;SDS011;38120;53.176;6.614;2023-04-24T08:46:50;19.20;;;9.80;;
52126;SDS011;38120;53.176;6.614;2023-04-24T08:49:17;17.67;;;10.00;;
52126;SDS011;38120;53.176;6.614;2023-04-24T08:51:43;15.18;;;9.13;;
52126;SDS011;38120;53.176;6.614;2023-04-24T08:54:11;20.10;;;8.77;;
52126;SDS011;38120;53.176;6.614;2023-04-24T08:56:37;16.92;;;9.20;;
52126;SDS011;38120;53.176;6.614;2023-04-24T08:59:05;19.15;;;9.95;;
52126;SDS011;38120;53.176;6.614;2023-04-24T09:01:32;17.92;;;9.38;;
52126;SDS011;38120;53.176;6.614;2023-04-24T09:04:03;15.48;;;7.93;;
52126;SDS011;38120;53.176;6.614;2023-04-24T09:06:29;15.63;;;7.65;;
52126;SDS011;38120;53.176;6.614;2023-04-24T09:08:58;18.75;;;8.43;;
52126;SDS011;38120;53.176;6.614;2023-04-24T09:11:27;23.45;;;8.73;;
52126;SDS011;38120;53.176;6.614;2023-04-24T09:13:58;13.48;;;8.32;;
52126;SDS011;38120;53.176;6.614;2023-04-24T09:16:26;16.60;;;8.07;;
52126;SDS011;38120;53.176;6.614;2023-04-24T09:18:52;15.02;;;9.32;;
52126;SDS011;38120;53.176;6.614;2023-04-24T09:21:20;15.55;;;9.40;;
52126;SDS011;38120;53.176;6.614;2023-04-24T09:23:57;16.52;;;9.02;;
52126;SDS011;38120;53.176;6.614;2023-04-24T09:26:30;13.52;;;8.38;;
52126;SDS011;38120;53.176;6.614;2023-04-24T09:28:57;19.10;;;10.25;;
52126;SDS011;38120;53.176;6.614;2023-04-24T09:31:24;17.15;;;9.20;;
52126;SDS011;38120;53.176;6.614;2023-04-24T09:33:54;16.38;;;9.95;;
52126;SDS011;38120;53.176;6.614;2023-04-24T09:36:28;15.63;;;9.05;;
52126;SDS011;38120;53.176;6.614;2023-04-24T09:39:14;13.18;;;8.60;;
52126;SDS011;38120;53.176;6.614;2023-04-24T09:41:50;14.60;;;7.15;;
52126;SDS011;38120;53.176;6.614;2023-04-24T09:44:25;15.48;;;8.30;;
52126;SDS011;38120;53.176;6.614;2023-04-24T09:46:56;10.98;;;7.28;;
52126;SDS011;38120;53.176;6.614;2023-04-24T09:49:24;15.25;;;6.15;;
52126;SDS011;38120;53.176;6.614;2023-04-24T09:51:51;15.93;;;7.18;;
52126;SDS011;38120;53.176;6.614;2023-04-24T09:54:20;15.43;;;7.57;;
52126;SDS011;38120;53.176;6.614;2023-04-24T09:56:47;14.57;;;6.72;;
52126;SDS011;38120;53.176;6.614;2023-04-24T09:59:15;13.20;;;6.68;;
52126;SDS011;38120;53.176;6.614;2023-04-24T10:01:41;11.98;;;6.28;;
52126;SDS011;38120;53.176;6.614;2023-04-24T10:04:20;12.82;;;6.72;;
52126;SDS011;38120;53.176;6.614;2023-04-24T10:06:48;12.50;;;6.10;;
52126;SDS011;38120;53.176;6.614;2023-04-24T10:09:16;13.93;;;6.00;;
52126;SDS011;38120;53.176;6.614;2023-04-24T10:11:43;15.25;;;6.25;;
52126;SDS011;38120;53.176;6.614;2023-04-24T10:14:13;10.95;;;5.28;;
52126;SDS011;38120;53.176;6.614;2023-04-24T10:16:40;10.95;;;4.95;;
52126;SDS011;38120;53.176;6.614;2023-04-24T10:19:09;12.95;;;4.60;;
52126;SDS011;38120;53.176;6.614;2023-04-24T10:21:35;8.77;;;4.13;;
52126;SDS011;38120;53.176;6.614;2023-04-24T10:24:07;8.57;;;3.50;;
52126;SDS011;38120;53.176;6.614;2023-04-24T10:26:37;7.20;;;3.92;;
52126;SDS011;38120;53.176;6.614;2023-04-24T10:29:05;6.80;;;3.70;;
52126;SDS011;38120;53.176;6.614;2023-04-24T10:31:35;10.13;;;3.25;;
52126;SDS011;38120;53.176;6.614;2023-04-24T10:34:02;8.68;;;3.15;;
52126;SDS011;38120;53.176;6.614;2023-04-24T10:36:30;7.18;;;2.78;;
52126;SDS011;38120;53.176;6.614;2023-04-24T10:38:58;9.50;;;2.63;;
52126;SDS011;38120;53.176;6.614;2023-04-24T10:41:26;9.63;;;3.08;;
52126;SDS011;38120;53.176;6.614;2023-04-24T10:44:05;8.38;;;2.70;;
52126;SDS011;38120;53.176;6.614;2023-04-24T10:46:35;8.25;;;3.42;;
52126;SDS011;38120;53.176;6.614;2023-04-24T10:49:05;10.90;;;3.28;;
52126;SDS011;38120;53.176;6.614;2023-04-24T10:51:52;5.05;;;2.30;;
52126;SDS011;38120;53.176;6.614;2023-04-24T10:59:50;10.13;;;3.03;;
52126;SDS011;38120;53.176;6.614;2023-04-24T11:02:37;6.07;;;2.75;;
52126;SDS011;38120;53.176;6.614;2023-04-24T11:05:05;7.82;;;2.75;;
52126;SDS011;38120;53.176;6.614;2023-04-24T11:10:46;4.28;;;1.85;;
52126;SDS011;38120;53.176;6.614;2023-04-24T11:13:22;7.00;;;2.70;;
52126;SDS011;38120;53.176;6.614;2023-04-24T11:18:43;7.85;;;2.92;;
52126;SDS011;38120;53.176;6.614;2023-04-24T11:21:18;7.32;;;2.78;;
52126;SDS011;38120;53.176;6.614;2023-04-24T11:23:45;7.25;;;2.33;;
52126;SDS011;38120;53.176;6.614;2023-04-24T11:26:18;17.23;;;3.17;;
52126;SDS011;38120;53.176;6.614;2023-04-24T11:28:48;6.67;;;2.30;;
52126;SDS011;38120;53.176;6.614;2023-04-24T11:34:15;6.57;;;2.00;;
52126;SDS011;38120;53.176;6.614;2023-04-24T11:36:45;5.35;;;2.13;;
52126;SDS011;38120;53.176;6.614;2023-04-24T11:39:12;7.65;;;2.58;;
52126;SDS011;38120;53.176;6.614;2023-04-24T11:41:38;11.32;;;2.60;;
52126;SDS011;38120;53.176;6.614;2023-04-24T11:44:05;3.70;;;1.80;;
52126;SDS011;38120;53.176;6.614;2023-04-24T11:46:32;7.80;;;1.88;;
52126;SDS011;38120;53.176;6.614;2023-04-24T11:48:58;5.35;;;1.75;;
52126;SDS011;38120;53.176;6.614;2023-04-24T11:51:25;10.32;;;2.17;;
52126;SDS011;38120;53.176;6.614;2023-04-24T11:53:53;6.38;;;1.90;;
52126;SDS011;38120;53.176;6.614;2023-04-24T11:56:23;5.55;;;1.75;;
52126;SDS011;38120;53.176;6.614;2023-04-24T11:58:53;6.35;;;2.15;;
52126;SDS011;38120;53.176;6.614;2023-04-24T12:01:26;6.13;;;1.90;;
52126;SDS011;38120;53.176;6.614;2023-04-24T12:03:58;3.83;;;1.80;;
52126;SDS011;38120;53.176;6.614;2023-04-24T12:06:25;6.07;;;1.50;;
52126;SDS011;38120;53.176;6.614;2023-04-24T12:08:52;3.90;;;1.57;;
52126;SDS011;38120;53.176;6.614;2023-04-24T12:11:20;5.00;;;1.60;;
52126;SDS011;38120;53.176;6.614;2023-04-24T12:13:45;4.63;;;2.00;;
52126;SDS011;38120;53.176;6.614;2023-04-24T12:16:11;6.55;;;1.63;;
52126;SDS011;38120;53.176;6.614;2023-04-24T12:18:41;7.45;;;2.45;;
52126;SDS011;38120;53.176;6.614;2023-04-24T12:21:18;5.78;;;1.92;;
52126;SDS011;38120;53.176;6.614;2023-04-24T12:23:45;4.13;;;1.90;;
52126;SDS011;38120;53.176;6.614;2023-04-24T12:26:20;4.18;;;1.70;;
52126;SDS011;38120;53.176;6.614;2023-04-24T12:28:48;2.80;;;1.27;;
52126;SDS011;38120;53.176;6.614;2023-04-24T12:31:17;2.78;;;0.93;;
52126;SDS011;38120;53.176;6.614;2023-04-24T12:33:46;7.22;;;1.58;;
52126;SDS011;38120;53.176;6.614;2023-04-24T12:36:12;4.03;;;1.37;;
52126;SDS011;38120;53.176;6.614;2023-04-24T12:38:38;4.45;;;1.52;;
52126;SDS011;38120;53.176;6.614;2023-04-24T12:41:10;3.67;;;1.30;;
52126;SDS011;38120;53.176;6.614;2023-04-24T12:43:37;2.65;;;1.20;;
52126;SDS011;38120;53.176;6.614;2023-04-24T12:46:03;3.80;;;1.40;;
52126;SDS011;38120;53.176;6.614;2023-04-24T12:48:30;4.03;;;1.00;;
52126;SDS011;38120;53.176;6.614;2023-04-24T12:50:59;2.10;;;0.90;;
52126;SDS011;38120;53.176;6.614;2023-04-24T12:53:28;3.35;;;0.77;;
52126;SDS011;38120;53.176;6.614;2023-04-24T12:55:57;3.17;;;1.15;;
52126;SDS011;38120;53.176;6.614;2023-04-24T12:58:23;4.38;;;0.95;;
52126;SDS011;38120;53.176;6.614;2023-04-24T13:00:49;3.83;;;1.25;;
52126;SDS011;38120;53.176;6.614;2023-04-24T13:03:15;5.00;;;1.13;;
52126;SDS011;38120;53.176;6.614;2023-04-24T13:05:42;2.47;;;1.27;;
52126;SDS011;38120;53.176;6.614;2023-04-24T13:08:08;3.60;;;1.20;;
52126;SDS011;38120;53.176;6.614;2023-04-24T13:10:34;3.75;;;1.17;;
52126;SDS011;38120;53.176;6.614;2023-04-24T13:13:00;9.30;;;1.90;;
52126;SDS011;38120;53.176;6.614;2023-04-24T13:15:26;3.80;;;1.30;;
52126;SDS011;38120;53.176;6.614;2023-04-24T13:17:52;9.03;;;1.93;;
52126;SDS011;38120;53.176;6.614;2023-04-24T13:20:17;7.18;;;1.27;;
52126;SDS011;38120;53.176;6.614;2023-04-24T13:22:43;3.13;;;1.13;;
52126;SDS011;38120;53.176;6.614;2023-04-24T13:25:09;7.47;;;1.58;;
52126;SDS011;38120;53.176;6.614;2023-04-24T13:27:35;6.20;;;1.63;;
52126;SDS011;38120;53.176;6.614;2023-04-24T13:30:03;8.48;;;3.15;;
52126;SDS011;38120;53.176;6.614;2023-04-24T13:32:29;10.05;;;1.88;;
52126;SDS011;38120;53.176;6.614;2023-04-24T13:39:02;2.90;;;1.10;;
52126;SDS011;38120;53.176;6.614;2023-04-24T13:41:29;2.45;;;0.73;;
52126;SDS011;38120;53.176;6.614;2023-04-24T13:43:55;4.75;;;0.70;;
52126;SDS011;38120;53.176;6.614;2023-04-24T13:46:21;2.80;;;0.77;;
52126;SDS011;38120;53.176;6.614;2023-04-24T13:48:47;2.47;;;0.83;;
52126;SDS011;38120;53.176;6.614;2023-04-24T13:51:12;2.17;;;0.95;;
52126;SDS011;38120;53.176;6.614;2023-04-24T13:53:41;2.40;;;1.05;;
52126;SDS011;38120;53.176;6.614;2023-04-24T13:56:07;1.80;;;0.90;;
52126;SDS011;38120;53.176;6.614;2023-04-24T13:58:34;3.58;;;0.75;;
52126;SDS011;38120;53.176;6.614;2023-04-24T14:01:01;7.47;;;1.55;;
52126;SDS011;38120;53.176;6.614;2023-04-24T14:03:28;1.35;;;0.75;;
52126;SDS011;38120;53.176;6.614;2023-04-24T14:05:54;3.15;;;0.90;;
52126;SDS011;38120;53.176;6.614;2023-04-24T14:08:20;2.10;;;0.75;;
52126;SDS011;38120;53.176;6.614;2023-04-24T14:10:45;3.75;;;1.00;;
52126;SDS011;38120;53.176;6.614;2023-04-24T14:13:11;9.10;;;1.10;;
52126;SDS011;38120;53.176;6.614;2023-04-24T14:15:37;4.03;;;1.10;;
52126;SDS011;38120;53.176;6.614;2023-04-24T14:18:03;7.23;;;1.30;;
52126;SDS011;38120;53.176;6.614;2023-04-24T14:20:29;2.42;;;1.10;;
52126;SDS011;38120;53.176;6.614;2023-04-24T14:22:55;8.15;;;2.03;;
52126;SDS011;38120;53.176;6.614;2023-04-24T14:25:24;10.88;;;2.00;;
52126;SDS011;38120;53.176;6.614;2023-04-24T14:27:50;8.13;;;2.33;;
52126;SDS011;38120;53.176;6.614;2023-04-24T14:30:16;6.80;;;2.30;;
52126;SDS011;38120;53.176;6.614;2023-04-24T14:32:42;8.45;;;2.40;;
52126;SDS011;38120;53.176;6.614;2023-04-24T14:35:08;4.03;;;2.13;;
52126;SDS011;38120;53.176;6.614;2023-04-24T14:37:34;10.73;;;2.00;;
52126;SDS011;38120;53.176;6.614;2023-04-24T14:40:01;16.52;;;3.00;;
52126;SDS011;38120;53.176;6.614;2023-04-24T14:42:29;8.35;;;2.20;;
52126;SDS011;38120;53.176;6.614;2023-04-24T14:44:55;7.85;;;2.03;;
52126;SDS011;38120;53.176;6.614;2023-04-24T14:47:20;6.07;;;2.40;;
52126;SDS011;38120;53.176;6.614;2023-04-24T14:49:47;7.25;;;2.67;;
52126;SDS011;38120;53.176;6.614;2023-04-24T14:52:13;11.40;;;2.47;;
52126;SDS011;38120;53.176;6.614;2023-04-24T14:54:39;7.75;;;2.25;;
52126;SDS011;38120;53.176;6.614;2023-04-24T14:57:08;8.18;;;2.05;;
52126;SDS011;38120;53.176;6.614;2023-04-24T14:59:37;5.07;;;2.00;;
52126;SDS011;38120;53.176;6.614;2023-04-24T15:02:03;5.78;;;2.13;;
52126;SDS011;38120;53.176;6.614;2023-04-24T15:04:29;4.10;;;2.17;;
52126;SDS011;38120;53.176;6.614;2023-04-24T15:06:55;7.07;;;2.38;;
52126;SDS011;38120;53.176;6.614;2023-04-24T15:09:22;10.87;;;2.50;;
52126;SDS011;38120;53.176;6.614;2023-04-24T15:11:49;8.32;;;2.30;;
52126;SDS011;38120;53.176;6.614;2023-04-24T15:14:15;12.80;;;2.03;;
52126;SDS011;38120;53.176;6.614;2023-04-24T15:16:42;11.70;;;3.08;;
52126;SDS011;38120;53.176;6.614;2023-04-24T15:19:08;8.95;;;2.53;;
52126;SDS011;38120;53.176;6.614;2023-04-24T15:21:37;9.15;;;2.70;;